sensor_id;sensor_type;location;lat;lon;timestamp;pressure;altitude;pressure_sealevel;temperature;humidity
8286;BME280;4181;43.416;24.598;2023-05-27T00:01:38;99341.47;;;19.74;100.00
8286;BME280;4181;43.416;24.598;2023-05-27T00:04:04;99343.44;;;19.65;100.00
8286;BME280;4181;43.416;24.598;2023-05-27T00:06:29;99339.88;;;19.56;100.00
8286;BME280;4181;43.416;24.598;2023-05-27T00:08:55;99321.47;;;19.51;100.00
8286;BME280;4181;43.416;24.598;2023-05-27T00:11:20;99325.25;;;19.47;100.00
8286;BME280;4181;43.416;24.598;2023-05-27T00:13:46;99308.28;;;19.57;100.00
8286;BME280;4181;43.416;24.598;2023-05-27T00:16:12;99301.53;;;19.37;100.00
8286;BME280;4181;43.416;24.598;2023-05-27T00:18:38;99280.06;;;19.34;100.00
8286;BME280;4181;43.416;24.598;2023-05-27T00:21:03;99268.97;;;19.26;100.00
8286;BME280;4181;43.416;24.598;2023-05-27T00:23:29;99264.09;;;19.23;100.00
8286;BME280;4181;43.416;24.598;2023-05-27T00:25:54;99239.34;;;19.26;100.00
8286;BME280;4181;43.416;24.598;2023-05-27T00:28:20;99234.31;;;19.37;100.00
8286;BME280;4181;43.416;24.598;2023-05-27T00:30:45;99217.50;;;19.50;100.00
8286;BME280;4181;43.416;24.598;2023-05-27T00:33:11;99217.47;;;19.59;100.00
8286;BME280;4181;43.416;24.598;2023-05-27T00:35:36;99223.31;;;19.66;100.00
8286;BME280;4181;43.416;24.598;2023-05-27T00:38:04;99207.34;;;19.63;100.00
8286;BME280;4181;43.416;24.598;2023-05-27T00:40:30;99219.44;;;19.50;100.00
8286;BME280;4181;43.416;24.598;2023-05-27T00:42:56;99226.50;;;19.39;100.00
8286;BME280;4181;43.416;24.598;2023-05-27T00:45:21;99207.97;;;19.31;100.00
8286;BME280;4181;43.416;24.598;2023-05-27T00:47:47;99182.91;;;19.36;100.00
8286;BME280;4181;43.416;24.598;2023-05-27T00:50:14;99176.59;;;19.10;100.00
8286;BME280;4181;43.416;24.598;2023-05-27T00:52:39;99164.47;;;18.93;100.00
8286;BME280;4181;43.416;24.598;2023-05-27T00:55:06;99129.78;;;19.05;100.00
8286;BME280;4181;43.416;24.598;2023-05-27T00:57:32;99112.22;;;19.09;100.00
8286;BME280;4181;43.416;24.598;2023-05-27T00:59:58;99104.56;;;19.06;100.00
8286;BME280;4181;43.416;24.598;2023-05-27T01:02:23;99098.66;;;18.87;100.00
8286;BME280;4181;43.416;24.598;2023-05-27T01:04:49;99088.06;;;18.98;100.00
8286;BME280;4181;43.416;24.598;2023-05-27T01:10:01;99086.97;;;19.19;100.00
8286;BME280;4181;43.416;24.598;2023-05-27T01:12:51;99113.66;;;19.15;100.00
8286;BME280;4181;43.416;24.598;2023-05-27T01:15:20;99122.97;;;19.11;100.00
8286;BME280;4181;43.416;24.598;2023-05-27T01:17:47;99131.47;;;18.97;100.00
8286;BME280;4181;43.416;24.598;2023-05-27T01:20:14;99119.72;;;19.00;100.00
8286;BME280;4181;43.416;24.598;2023-05-27T01:22:43;99105.34;;;19.15;100.00
8286;BME280;4181;43.416;24.598;2023-05-27T01:25:09;99110.25;;;19.10;100.00
8286;BME280;4181;43.416;24.598;2023-05-27T01:27:35;99111.13;;;18.93;100.00
8286;BME280;4181;43.416;24.598;2023-05-27T01:30:01;99112.69;;;19.11;100.00
8286;BME280;4181;43.416;24.598;2023-05-27T01:32:47;99121.75;;;19.20;100.00
8286;BME280;4181;43.416;24.598;2023-05-27T01:35:40;99118.03;;;19.16;100.00
8286;BME280;4181;43.416;24.598;2023-05-27T01:38:12;99113.28;;;19.25;100.00
8286;BME280;4181;43.416;24.598;2023-05-27T01:40:39;99106.94;;;19.25;100.00
8286;BME280;4181;43.416;24.598;2023-05-27T01:43:06;99129.19;;;19.37;100.00
8286;BME280;4181;43.416;24.598;2023-05-27T01:45:33;99137.78;;;19.44;100.00
8286;BME280;4181;43.416;24.598;2023-05-27T01:47:59;99145.09;;;19.48;100.00
8286;BME280;4181;43.416;24.598;2023-05-27T01:50:24;99172.31;;;19.38;100.00
8286;BME280;4181;43.416;24.598;2023-05-27T01:52:49;99169.34;;;19.43;100.00
8286;BME280;4181;43.416;24.598;2023-05-27T01:55:15;99161.53;;;19.45;100.00
8286;BME280;4181;43.416;24.598;2023-05-27T01:57:42;99170.31;;;19.47;100.00
8286;BME280;4181;43.416;24.598;2023-05-27T02:00:08;99173.72;;;19.52;100.00
8286;BME280;4181;43.416;24.598;2023-05-27T02:02:34;99197.19;;;19.38;100.00
8286;BME280;4181;43.416;24.598;2023-05-27T02:05:00;99215.63;;;19.34;100.00
8286;BME280;4181;43.416;24.598;2023-05-27T02:07:25;99201.03;;;19.08;100.00
8286;BME280;4181;43.416;24.598;2023-05-27T02:09:52;99184.66;;;18.85;100.00
8286;BME280;4181;43.416;24.598;2023-05-27T02:12:17;99153.25;;;18.99;100.00
8286;BME280;4181;43.416;24.598;2023-05-27T02:14:43;99160.09;;;18.92;100.00
8286;BME280;4181;43.416;24.598;2023-05-27T02:17:10;99159.28;;;18.92;100.00
8286;BME280;4181;43.416;24.598;2023-05-27T02:19:36;99169.56;;;18.66;100.00
8286;BME280;4181;43.416;24.598;2023-05-27T02:22:01;99156.56;;;18.66;100.00
8286;BME280;4181;43.416;24.598;2023-05-27T02:24:27;99159.81;;;18.68;100.00
8286;BME280;4181;43.416;24.598;2023-05-27T02:26:52;99159.00;;;18.59;100.00
8286;BME280;4181;43.416;24.598;2023-05-27T02:29:18;99145.66;;;18.78;100.00
8286;BME280;4181;43.416;24.598;2023-05-27T02:31:43;99143.06;;;18.73;100.00
8286;BME280;4181;43.416;24.598;2023-05-27T02:34:09;99150.03;;;18.79;100.00
8286;BME280;4181;43.416;24.598;2023-05-27T02:36:34;99139.28;;;18.86;100.00
8286;BME280;4181;43.416;24.598;2023-05-27T02:39:00;99132.47;;;18.92;100.00
8286;BME280;4181;43.416;24.598;2023-05-27T02:41:26;99133.56;;;19.00;100.00
8286;BME280;4181;43.416;24.598;2023-05-27T02:43:51;99144.66;;;18.83;100.00
8286;BME280;4181;43.416;24.598;2023-05-27T02:46:17;99137.50;;;18.90;100.00
8286;BME280;4181;43.416;24.598;2023-05-27T02:48:42;99129.03;;;18.96;100.00
8286;BME280;4181;43.416;24.598;2023-05-27T02:51:08;99127.06;;;18.96;100.00
8286;BME280;4181;43.416;24.598;2023-05-27T02:53:33;99130.97;;;18.95;100.00
8286;BME280;4181;43.416;24.598;2023-05-27T02:55:59;99134.88;;;19.03;100.00
8286;BME280;4181;43.416;24.598;2023-05-27T02:58:24;99154.41;;;18.98;100.00
8286;BME280;4181;43.416;24.598;2023-05-27T03:00:50;99175.47;;;18.47;100.00
8286;BME280;4181;43.416;24.598;2023-05-27T03:03:15;99152.03;;;18.45;100.00
8286;BME280;4181;43.416;24.598;2023-05-27T03:05:41;99131.09;;;18.44;100.00
8286;BME280;4181;43.416;24.598;2023-05-27T03:08:06;99119.72;;;18.54;100.00
8286;BME280;4181;43.416;24.598;2023-05-27T03:10:32;99121.47;;;18.58;100.00
8286;BME280;4181;43.416;24.598;2023-05-27T03:12:58;99124.22;;;18.67;100.00
8286;BME280;4181;43.416;24.598;2023-05-27T03:15:23;99127.63;;;18.72;100.00
8286;BME280;4181;43.416;24.598;2023-05-27T03:17:49;99133.75;;;18.86;100.00
8286;BME280;4181;43.416;24.598;2023-05-27T03:20:15;99133.09;;;18.89;100.00
8286;BME280;4181;43.416;24.598;2023-05-27T03:22:42;99131.31;;;18.93;100.00
8286;BME280;4181;43.416;24.598;2023-05-27T03:25:08;99140.38;;;19.03;100.00
8286;BME280;4181;43.416;24.598;2023-05-27T03:27:34;99145.47;;;18.92;100.00
8286;BME280;4181;43.416;24.598;2023-05-27T03:30:00;99139.75;;;18.97;100.00
8286;BME280;4181;43.416;24.598;2023-05-27T03:32:25;99148.97;;;19.10;100.00
8286;BME280;4181;43.416;24.598;2023-05-27T03:34:50;99169.16;;;19.02;100.00
8286;BME280;4181;43.416;24.598;2023-05-27T03:37:16;99158.22;;;19.14;100.00
8286;BME280;4181;43.416;24.598;2023-05-27T03:39:41;99146.16;;;19.18;100.00
8286;BME280;4181;43.416;24.598;2023-05-27T03:42:07;99154.63;;;19.22;100.00
8286;BME280;4181;43.416;24.598;2023-05-27T03:44:32;99149.25;;;19.25;100.00
8286;BME280;4181;43.416;24.598;2023-05-27T03:46:58;99149.22;;;19.34;100.00
8286;BME280;4181;43.416;24.598;2023-05-27T03:49:24;99154.72;;;19.42;100.00
8286;BME280;4181;43.416;24.598;2023-05-27T03:51:49;99167.75;;;19.42;100.00
8286;BME280;4181;43.416;24.598;2023-05-27T03:54:15;99171.13;;;19.47;100.00
8286;BME280;4181;43.416;24.598;2023-05-27T03:56:40;99156.28;;;19.52;100.00
8286;BME280;4181;43.416;24.598;2023-05-27T03:59:06;99164.88;;;19.59;100.00
8286;BME280;4181;43.416;24.598;2023-05-27T04:01:32;99168.78;;;19.58;100.00
8286;BME280;4181;43.416;24.598;2023-05-27T04:03:57;99177.09;;;19.58;100.00
8286;BME280;4181;43.416;24.598;2023-05-27T04:06:23;99174.31;;;19.58;100.00
8286;BME280;4181;43.416;24.598;2023-05-27T04:08:48;99186.53;;;19.57;100.00
8286;BME280;4181;43.416;24.598;2023-05-27T04:11:14;99179.41;;;19.56;100.00
8286;BME280;4181;43.416;24.598;2023-05-27T04:13:40;99163.34;;;19.70;100.00
8286;BME280;4181;43.416;24.598;2023-05-27T04:16:06;99158.97;;;19.69;100.00
8286;BME280;4181;43.416;24.598;2023-05-27T04:18:33;99158.31;;;19.72;100.00
8286;BME280;4181;43.416;24.598;2023-05-27T04:20:59;99152.28;;;19.70;100.00
8286;BME280;4181;43.416;24.598;2023-05-27T04:23:25;99126.50;;;19.78;100.00
8286;BME280;4181;43.416;24.598;2023-05-27T04:25:50;99115.38;;;19.86;100.00
8286;BME280;4181;43.416;24.598;2023-05-27T04:28:17;99113.22;;;19.92;100.00
8286;BME280;4181;43.416;24.598;2023-05-27T04:30:43;99112.88;;;19.93;100.00
8286;BME280;4181;43.416;24.598;2023-05-27T04:33:11;99096.28;;;19.93;100.00
8286;BME280;4181;43.416;24.598;2023-05-27T04:35:36;99093.72;;;20.09;100.00
8286;BME280;4181;43.416;24.598;2023-05-27T04:38:02;99085.88;;;20.11;100.00
8286;BME280;4181;43.416;24.598;2023-05-27T04:40:28;99090.72;;;20.14;100.00
8286;BME280;4181;43.416;24.598;2023-05-27T04:42:56;99093.50;;;20.14;100.00
8286;BME280;4181;43.416;24.598;2023-05-27T04:45:22;99109.50;;;20.08;100.00
8286;BME280;4181;43.416;24.598;2023-05-27T04:47:50;99109.66;;;20.12;100.00
8286;BME280;4181;43.416;24.598;2023-05-27T04:50:17;99103.16;;;20.08;100.00
8286;BME280;4181;43.416;24.598;2023-05-27T04:52:43;99122.72;;;20.03;100.00
8286;BME280;4181;43.416;24.598;2023-05-27T04:55:10;99107.22;;;20.10;100.00
8286;BME280;4181;43.416;24.598;2023-05-27T04:57:36;99108.13;;;20.14;100.00
8286;BME280;4181;43.416;24.598;2023-05-27T05:00:03;99111.06;;;20.18;100.00
8286;BME280;4181;43.416;24.598;2023-05-27T05:02:30;99099.84;;;20.35;100.00
8286;BME280;4181;43.416;24.598;2023-05-27T05:05:06;99089.25;;;20.37;100.00
8286;BME280;4181;43.416;24.598;2023-05-27T05:07:32;99096.31;;;20.47;100.00
8286;BME280;4181;43.416;24.598;2023-05-27T05:10:06;99094.41;;;20.59;100.00
8286;BME280;4181;43.416;24.598;2023-05-27T05:12:32;99096.97;;;20.64;100.00
8286;BME280;4181;43.416;24.598;2023-05-27T05:14:58;99087.25;;;20.70;100.00
8286;BME280;4181;43.416;24.598;2023-05-27T05:17:24;99096.97;;;20.76;100.00
8286;BME280;4181;43.416;24.598;2023-05-27T05:19:50;99091.19;;;20.81;100.00
8286;BME280;4181;43.416;24.598;2023-05-27T05:22:16;99083.94;;;20.89;100.00
8286;BME280;4181;43.416;24.598;2023-05-27T05:24:47;99093.31;;;20.84;100.00
8286;BME280;4181;43.416;24.598;2023-05-27T05:27:13;99091.66;;;20.83;100.00
8286;BME280;4181;43.416;24.598;2023-05-27T05:29:38;99087.97;;;20.91;100.00
8286;BME280;4181;43.416;24.598;2023-05-27T05:32:04;99086.78;;;21.01;100.00
8286;BME280;4181;43.416;24.598;2023-05-27T05:34:30;99096.06;;;20.72;100.00
8286;BME280;4181;43.416;24.598;2023-05-27T05:36:56;99102.50;;;20.76;100.00
8286;BME280;4181;43.416;24.598;2023-05-27T05:39:21;99104.75;;;20.83;100.00
8286;BME280;4181;43.416;24.598;2023-05-27T05:41:47;99104.53;;;20.88;100.00
8286;BME280;4181;43.416;24.598;2023-05-27T05:44:13;99110.28;;;20.95;100.00
8286;BME280;4181;43.416;24.598;2023-05-27T05:46:38;99097.88;;;21.01;100.00
8286;BME280;4181;43.416;24.598;2023-05-27T05:49:04;99081.22;;;21.01;100.00
8286;BME280;4181;43.416;24.598;2023-05-27T05:51:30;99099.63;;;20.85;100.00
8286;BME280;4181;43.416;24.598;2023-05-27T05:53:57;99105.00;;;20.57;100.00
8286;BME280;4181;43.416;24.598;2023-05-27T05:56:23;99080.09;;;20.69;100.00
8286;BME280;4181;43.416;24.598;2023-05-27T05:58:48;99065.47;;;20.81;100.00
8286;BME280;4181;43.416;24.598;2023-05-27T06:01:15;99060.03;;;20.84;100.00
8286;BME280;4181;43.416;24.598;2023-05-27T06:03:40;99064.31;;;20.94;100.00
8286;BME280;4181;43.416;24.598;2023-05-27T06:06:06;99089.63;;;20.92;100.00
8286;BME280;4181;43.416;24.598;2023-05-27T06:08:32;99100.47;;;20.85;100.00
8286;BME280;4181;43.416;24.598;2023-05-27T06:10:57;99102.41;;;20.85;100.00
8286;BME280;4181;43.416;24.598;2023-05-27T06:13:23;99075.56;;;20.97;100.00
8286;BME280;4181;43.416;24.598;2023-05-27T06:15:48;99084.25;;;21.08;100.00
8286;BME280;4181;43.416;24.598;2023-05-27T06:18:14;99099.81;;;21.00;100.00
8286;BME280;4181;43.416;24.598;2023-05-27T06:20:39;99088.53;;;21.29;100.00
8286;BME280;4181;43.416;24.598;2023-05-27T06:23:05;99080.41;;;21.49;100.00
8286;BME280;4181;43.416;24.598;2023-05-27T06:25:32;99131.66;;;21.51;100.00
8286;BME280;4181;43.416;24.598;2023-05-27T06:27:57;99183.78;;;21.46;100.00
8286;BME280;4181;43.416;24.598;2023-05-27T06:30:23;99199.38;;;21.26;100.00
8286;BME280;4181;43.416;24.598;2023-05-27T06:32:49;99198.38;;;21.43;100.00
8286;BME280;4181;43.416;24.598;2023-05-27T06:35:14;99200.91;;;21.48;100.00
8286;BME280;4181;43.416;24.598;2023-05-27T06:37:40;99206.59;;;21.51;100.00
8286;BME280;4181;43.416;24.598;2023-05-27T06:40:06;99199.06;;;21.64;100.00
8286;BME280;4181;43.416;24.598;2023-05-27T06:42:31;99219.56;;;21.59;100.00
8286;BME280;4181;43.416;24.598;2023-05-27T06:44:57;99223.00;;;21.68;100.00
8286;BME280;4181;43.416;24.598;2023-05-27T06:47:22;99220.56;;;21.67;100.00
8286;BME280;4181;43.416;24.598;2023-05-27T06:49:48;99241.53;;;21.76;100.00
8286;BME280;4181;43.416;24.598;2023-05-27T06:52:13;99244.44;;;21.92;100.00
8286;BME280;4181;43.416;24.598;2023-05-27T06:54:39;99256.25;;;21.89;100.00
8286;BME280;4181;43.416;24.598;2023-05-27T06:57:04;99255.09;;;22.02;100.00
8286;BME280;4181;43.416;24.598;2023-05-27T06:59:30;99259.03;;;22.01;100.00
8286;BME280;4181;43.416;24.598;2023-05-27T07:01:55;99293.88;;;21.98;100.00
8286;BME280;4181;43.416;24.598;2023-05-27T07:04:21;99309.50;;;21.91;100.00
8286;BME280;4181;43.416;24.598;2023-05-27T07:06:47;99317.84;;;21.91;100.00
8286;BME280;4181;43.416;24.598;2023-05-27T07:09:13;99309.50;;;21.91;100.00
8286;BME280;4181;43.416;24.598;2023-05-27T07:11:40;99321.31;;;21.88;100.00
8286;BME280;4181;43.416;24.598;2023-05-27T07:14:05;99342.34;;;21.89;100.00
8286;BME280;4181;43.416;24.598;2023-05-27T07:16:31;99362.06;;;21.96;100.00
8286;BME280;4181;43.416;24.598;2023-05-27T07:18:57;99367.06;;;21.70;100.00
8286;BME280;4181;43.416;24.598;2023-05-27T07:21:22;99352.94;;;21.63;100.00
8286;BME280;4181;43.416;24.598;2023-05-27T07:23:48;99328.22;;;21.82;100.00
8286;BME280;4181;43.416;24.598;2023-05-27T07:26:14;99328.25;;;21.94;100.00
8286;BME280;4181;43.416;24.598;2023-05-27T07:28:39;99335.97;;;21.88;100.00
8286;BME280;4181;43.416;24.598;2023-05-27T07:31:05;99343.28;;;21.81;100.00
8286;BME280;4181;43.416;24.598;2023-05-27T07:33:30;99344.34;;;22.00;100.00
8286;BME280;4181;43.416;24.598;2023-05-27T07:35:56;99363.34;;;22.10;100.00
8286;BME280;4181;43.416;24.598;2023-05-27T07:38:22;99370.41;;;22.20;100.00
8286;BME280;4181;43.416;24.598;2023-05-27T07:40:48;99383.22;;;22.00;100.00
8286;BME280;4181;43.416;24.598;2023-05-27T07:43:14;99394.22;;;21.85;100.00
8286;BME280;4181;43.416;24.598;2023-05-27T07:45:40;99382.56;;;21.71;100.00
8286;BME280;4181;43.416;24.598;2023-05-27T07:48:05;99378.97;;;21.70;100.00
8286;BME280;4181;43.416;24.598;2023-05-27T07:50:31;99365.91;;;21.71;100.00
8286;BME280;4181;43.416;24.598;2023-05-27T07:52:56;99366.69;;;21.59;100.00
8286;BME280;4181;43.416;24.598;2023-05-27T07:55:23;99352.53;;;21.52;100.00
8286;BME280;4181;43.416;24.598;2023-05-27T07:57:48;99333.03;;;21.61;100.00
8286;BME280;4181;43.416;24.598;2023-05-27T08:00:14;99341.59;;;21.68;100.00
8286;BME280;4181;43.416;24.598;2023-05-27T08:02:40;99366.59;;;21.68;100.00
8286;BME280;4181;43.416;24.598;2023-05-27T08:05:07;99379.66;;;21.67;100.00
8286;BME280;4181;43.416;24.598;2023-05-27T08:07:32;99381.25;;;21.56;100.00
8286;BME280;4181;43.416;24.598;2023-05-27T08:09:58;99382.16;;;21.60;100.00
8286;BME280;4181;43.416;24.598;2023-05-27T08:12:23;99381.38;;;21.60;100.00
8286;BME280;4181;43.416;24.598;2023-05-27T08:14:49;99378.00;;;21.54;100.00
8286;BME280;4181;43.416;24.598;2023-05-27T08:17:15;99393.63;;;21.59;100.00
8286;BME280;4181;43.416;24.598;2023-05-27T08:19:42;99395.75;;;21.74;100.00
8286;BME280;4181;43.416;24.598;2023-05-27T08:22:07;99405.47;;;21.68;100.00
8286;BME280;4181;43.416;24.598;2023-05-27T08:24:36;99401.25;;;21.62;100.00
8286;BME280;4181;43.416;24.598;2023-05-27T08:27:02;99385.81;;;21.73;100.00
8286;BME280;4181;43.416;24.598;2023-05-27T08:29:28;99386.03;;;21.68;100.00
8286;BME280;4181;43.416;24.598;2023-05-27T08:31:56;99386.66;;;21.85;100.00
8286;BME280;4181;43.416;24.598;2023-05-27T08:34:21;99401.41;;;22.10;100.00
8286;BME280;4181;43.416;24.598;2023-05-27T08:36:47;99406.19;;;22.33;100.00
8286;BME280;4181;43.416;24.598;2023-05-27T08:39:12;99407.16;;;22.74;100.00
8286;BME280;4181;43.416;24.598;2023-05-27T08:41:38;99405.34;;;23.17;100.00
8286;BME280;4181;43.416;24.598;2023-05-27T08:44:05;99438.72;;;23.41;100.00
8286;BME280;4181;43.416;24.598;2023-05-27T08:46:31;99500.66;;;23.38;100.00
8286;BME280;4181;43.416;24.598;2023-05-27T08:48:58;99528.00;;;23.60;100.00
8286;BME280;4181;43.416;24.598;2023-05-27T08:51:24;99541.66;;;23.77;100.00
8286;BME280;4181;43.416;24.598;2023-05-27T08:53:51;99560.50;;;23.56;100.00
8286;BME280;4181;43.416;24.598;2023-05-27T08:56:19;99561.22;;;23.41;100.00
8286;BME280;4181;43.416;24.598;2023-05-27T08:58:46;99540.88;;;23.65;100.00
8286;BME280;4181;43.416;24.598;2023-05-27T09:01:16;99557.41;;;23.86;100.00
8286;BME280;4181;43.416;24.598;2023-05-27T09:03:41;99595.28;;;23.74;100.00
8286;BME280;4181;43.416;24.598;2023-05-27T09:06:07;99565.78;;;23.73;100.00
8286;BME280;4181;43.416;24.598;2023-05-27T09:08:32;99582.50;;;23.73;100.00
8286;BME280;4181;43.416;24.598;2023-05-27T09:10:58;99603.09;;;23.45;100.00
8286;BME280;4181;43.416;24.598;2023-05-27T09:13:30;99597.31;;;23.38;100.00
8286;BME280;4181;43.416;24.598;2023-05-27T09:15:58;99594.28;;;23.31;100.00
8286;BME280;4181;43.416;24.598;2023-05-27T09:18:29;99597.16;;;23.22;100.00
8286;BME280;4181;43.416;24.598;2023-05-27T09:20:56;99586.47;;;23.12;100.00
8286;BME280;4181;43.416;24.598;2023-05-27T09:23:22;99577.66;;;23.22;100.00
8286;BME280;4181;43.416;24.598;2023-05-27T09:25:47;99592.06;;;23.24;100.00
8286;BME280;4181;43.416;24.598;2023-05-27T09:28:23;99615.38;;;23.32;100.00
8286;BME280;4181;43.416;24.598;2023-05-27T09:31:03;99644.59;;;23.26;100.00
8286;BME280;4181;43.416;24.598;2023-05-27T09:33:34;99655.13;;;23.08;100.00
8286;BME280;4181;43.416;24.598;2023-05-27T09:36:01;99646.31;;;23.06;100.00
8286;BME280;4181;43.416;24.598;2023-05-27T09:38:34;99643.09;;;23.28;100.00
8286;BME280;4181;43.416;24.598;2023-05-27T09:41:00;99672.28;;;22.98;100.00
8286;BME280;4181;43.416;24.598;2023-05-27T09:43:27;99642.38;;;23.07;100.00
8286;BME280;4181;43.416;24.598;2023-05-27T09:46:01;99630.06;;;23.20;100.00
8286;BME280;4181;43.416;24.598;2023-05-27T09:48:29;99618.75;;;23.37;100.00
8286;BME280;4181;43.416;24.598;2023-05-27T09:50:56;99604.13;;;23.28;100.00
8286;BME280;4181;43.416;24.598;2023-05-27T09:53:23;99616.69;;;23.46;100.00
8286;BME280;4181;43.416;24.598;2023-05-27T09:55:50;99625.47;;;23.60;100.00
8286;BME280;4181;43.416;24.598;2023-05-27T09:58:17;99629.13;;;23.89;100.00
8286;BME280;4181;43.416;24.598;2023-05-27T10:00:44;99633.88;;;24.12;100.00
8286;BME280;4181;43.416;24.598;2023-05-27T10:03:10;99631.59;;;24.42;100.00
8286;BME280;4181;43.416;24.598;2023-05-27T10:05:37;99664.72;;;24.59;100.00
8286;BME280;4181;43.416;24.598;2023-05-27T10:08:04;99662.16;;;24.93;100.00
8286;BME280;4181;43.416;24.598;2023-05-27T10:10:30;99699.97;;;24.91;100.00
8286;BME280;4181;43.416;24.598;2023-05-27T10:12:57;99741.41;;;24.77;100.00
8286;BME280;4181;43.416;24.598;2023-05-27T10:15:29;99769.13;;;24.70;100.00
8286;BME280;4181;43.416;24.598;2023-05-27T10:18:02;99753.25;;;24.86;100.00
8286;BME280;4181;43.416;24.598;2023-05-27T10:20:40;99717.63;;;25.11;100.00
8286;BME280;4181;43.416;24.598;2023-05-27T10:23:20;99729.94;;;25.37;100.00
8286;BME280;4181;43.416;24.598;2023-05-27T10:25:49;99814.50;;;25.22;100.00
8286;BME280;4181;43.416;24.598;2023-05-27T10:28:26;99844.25;;;25.30;100.00
8286;BME280;4181;43.416;24.598;2023-05-27T10:30:53;99832.09;;;25.11;100.00
8286;BME280;4181;43.416;24.598;2023-05-27T10:33:29;99823.50;;;25.43;100.00
8286;BME280;4181;43.416;24.598;2023-05-27T10:35:55;99830.59;;;25.41;100.00
8286;BME280;4181;43.416;24.598;2023-05-27T10:38:21;99828.16;;;25.82;100.00
8286;BME280;4181;43.416;24.598;2023-05-27T10:40:47;99817.44;;;26.15;100.00
8286;BME280;4181;43.416;24.598;2023-05-27T10:43:19;99823.94;;;26.19;100.00
8286;BME280;4181;43.416;24.598;2023-05-27T10:45:45;99821.53;;;26.53;100.00
8286;BME280;4181;43.416;24.598;2023-05-27T10:48:21;99814.63;;;26.81;100.00
8286;BME280;4181;43.416;24.598;2023-05-27T10:50:56;99814.84;;;26.92;100.00
8286;BME280;4181;43.416;24.598;2023-05-27T10:53:22;99837.63;;;27.09;100.00
8286;BME280;4181;43.416;24.598;2023-05-27T10:55:48;99844.63;;;27.19;100.00
8286;BME280;4181;43.416;24.598;2023-05-27T10:58:16;99857.06;;;27.37;100.00
8286;BME280;4181;43.416;24.598;2023-05-27T11:00:44;99871.28;;;27.28;100.00
8286;BME280;4181;43.416;24.598;2023-05-27T11:03:24;99861.00;;;27.55;100.00
8286;BME280;4181;43.416;24.598;2023-05-27T11:08:29;99893.91;;;27.39;100.00
8286;BME280;4181;43.416;24.598;2023-05-27T11:11:02;99898.75;;;27.61;100.00
8286;BME280;4181;43.416;24.598;2023-05-27T11:13:54;99884.13;;;27.71;100.00
8286;BME280;4181;43.416;24.598;2023-05-27T11:16:20;99867.91;;;27.80;100.00
8286;BME280;4181;43.416;24.598;2023-05-27T11:18:47;99858.09;;;27.90;100.00
8286;BME280;4181;43.416;24.598;2023-05-27T11:21:14;99871.31;;;27.70;100.00
8286;BME280;4181;43.416;24.598;2023-05-27T11:23:47;99878.81;;;27.85;100.00
8286;BME280;4181;43.416;24.598;2023-05-27T11:26:18;99885.81;;;27.95;100.00
8286;BME280;4181;43.416;24.598;2023-05-27T11:28:57;99904.53;;;27.30;100.00
8286;BME280;4181;43.416;24.598;2023-05-27T11:31:30;99906.91;;;27.47;100.00
8286;BME280;4181;43.416;24.598;2023-05-27T11:33:56;99922.38;;;27.06;100.00
8286;BME280;4181;43.416;24.598;2023-05-27T11:36:26;99912.25;;;26.83;100.00
8286;BME280;4181;43.416;24.598;2023-05-27T11:38:56;99913.06;;;26.68;100.00
8286;BME280;4181;43.416;24.598;2023-05-27T11:41:32;99918.41;;;26.42;100.00
8286;BME280;4181;43.416;24.598;2023-05-27T11:44:04;99916.97;;;26.32;100.00
8286;BME280;4181;43.416;24.598;2023-05-27T11:46:34;99908.13;;;26.30;100.00
8286;BME280;4181;43.416;24.598;2023-05-27T11:49:00;99893.91;;;26.54;100.00
8286;BME280;4181;43.416;24.598;2023-05-27T11:51:27;99891.31;;;26.61;100.00
8286;BME280;4181;43.416;24.598;2023-05-27T11:53:54;99896.53;;;26.47;100.00
8286;BME280;4181;43.416;24.598;2023-05-27T11:56:20;99911.81;;;26.50;100.00
8286;BME280;4181;43.416;24.598;2023-05-27T11:58:47;99901.44;;;26.66;100.00
8286;BME280;4181;43.416;24.598;2023-05-27T12:01:12;99900.06;;;26.75;100.00
8286;BME280;4181;43.416;24.598;2023-05-27T12:03:38;99897.81;;;26.65;100.00
8286;BME280;4181;43.416;24.598;2023-05-27T12:06:03;99895.81;;;26.81;100.00
8286;BME280;4181;43.416;24.598;2023-05-27T12:08:29;99898.81;;;26.73;100.00
8286;BME280;4181;43.416;24.598;2023-05-27T12:10:55;99892.06;;;26.93;100.00
8286;BME280;4181;43.416;24.598;2023-05-27T12:13:20;99895.66;;;26.59;100.00
8286;BME280;4181;43.416;24.598;2023-05-27T12:15:47;99893.03;;;26.66;100.00
8286;BME280;4181;43.416;24.598;2023-05-27T12:18:13;99902.25;;;26.19;100.00
8286;BME280;4181;43.416;24.598;2023-05-27T12:20:38;99899.25;;;25.97;100.00
8286;BME280;4181;43.416;24.598;2023-05-27T12:23:04;99878.78;;;26.24;100.00
8286;BME280;4181;43.416;24.598;2023-05-27T12:25:30;99883.75;;;26.46;100.00
8286;BME280;4181;43.416;24.598;2023-05-27T12:27:55;99870.75;;;26.54;100.00
8286;BME280;4181;43.416;24.598;2023-05-27T12:30:21;99877.88;;;26.36;100.00
8286;BME280;4181;43.416;24.598;2023-05-27T12:32:46;99854.38;;;26.71;100.00
8286;BME280;4181;43.416;24.598;2023-05-27T12:35:12;99843.44;;;27.01;100.00
8286;BME280;4181;43.416;24.598;2023-05-27T12:37:37;99824.09;;;27.30;100.00
8286;BME280;4181;43.416;24.598;2023-05-27T12:40:03;99833.44;;;27.57;100.00
8286;BME280;4181;43.416;24.598;2023-05-27T12:42:34;99821.41;;;27.79;100.00
8286;BME280;4181;43.416;24.598;2023-05-27T12:45:00;99833.13;;;27.85;100.00
8286;BME280;4181;43.416;24.598;2023-05-27T12:47:25;99823.53;;;27.86;100.00
8286;BME280;4181;43.416;24.598;2023-05-27T12:49:51;99821.16;;;27.88;100.00
8286;BME280;4181;43.416;24.598;2023-05-27T12:52:16;99820.56;;;27.56;100.00
8286;BME280;4181;43.416;24.598;2023-05-27T12:54:41;99806.66;;;27.82;100.00
8286;BME280;4181;43.416;24.598;2023-05-27T12:57:07;99823.59;;;27.89;100.00
8286;BME280;4181;43.416;24.598;2023-05-27T12:59:33;99811.78;;;27.99;100.00
8286;BME280;4181;43.416;24.598;2023-05-27T13:01:58;99814.38;;;28.11;100.00
8286;BME280;4181;43.416;24.598;2023-05-27T13:04:24;99801.63;;;28.14;100.00